createdAt,value
2018-11-04T00:00:20.252Z,1.04
2018-11-04T00:02:50.523Z,1.06
2018-11-04T00:05:20.504Z,1.02
2018-11-04T00:07:51.107Z,1.03
2018-11-04T00:10:20.698Z,1.14
2018-11-04T00:12:50.239Z,1.14
2018-11-04T00:15:19.795Z,1.12
2018-11-04T00:17:49.488Z,1.07
2018-11-04T00:20:19.095Z,1.06
2018-11-04T00:22:48.642Z,1.11
2018-11-04T00:25:18.169Z,1.16
2018-11-04T00:27:47.848Z,1.18
2018-11-04T00:30:18.304Z,1.13
2018-11-04T00:32:47.874Z,1.17
2018-11-04T00:35:17.395Z,1.22
2018-11-04T00:37:46.964Z,1.26
2018-11-04T00:40:16.528Z,1.26
2018-11-04T00:42:46.120Z,1.24
2018-11-04T00:45:15.675Z,1.25
2018-11-04T00:47:45.240Z,1.33
2018-11-04T00:50:15.951Z,1.39
2018-11-04T00:52:45.905Z,1.48
2018-11-04T00:55:15.493Z,1.51
2018-11-04T00:57:45.273Z,1.61
2018-11-04T01:00:17.758Z,1.57
2018-11-04T01:02:48.572Z,1.62
2018-11-04T01:05:18.688Z,1.66
2018-11-04T01:07:48.222Z,1.69
2018-11-04T01:10:17.670Z,1.71
2018-11-04T01:12:47.125Z,1.68
2018-11-04T01:15:16.691Z,1.72
2018-11-04T01:17:46.100Z,1.73
2018-11-04T01:20:17.217Z,1.74
2018-11-04T01:22:46.763Z,1.72
2018-11-04T01:25:16.207Z,1.91
2018-11-04T01:27:45.703Z,1.78
2018-11-04T01:30:15.888Z,1.72
2018-11-04T01:32:45.602Z,1.74
2018-11-04T01:35:15.115Z,1.75
2018-11-04T01:37:44.584Z,1.87
2018-11-04T01:40:14.048Z,1.83
2018-11-04T01:42:43.557Z,1.90
2018-11-04T01:45:13.025Z,1.92
2018-11-04T01:47:43.596Z,1.88
2018-11-04T01:50:14.785Z,1.86
2018-11-04T01:52:45.012Z,1.78
2018-11-04T01:55:14.508Z,1.81
2018-11-04T01:57:44.775Z,1.86
2018-11-04T02:00:17.304Z,1.99
2018-11-04T02:02:47.272Z,1.98
2018-11-04T02:05:16.808Z,1.95
2018-11-04T02:07:46.295Z,1.84
2018-11-04T02:10:16.256Z,1.87
2018-11-04T02:12:45.715Z,1.89
2018-11-04T02:15:15.129Z,1.90
2018-11-04T02:17:44.590Z,1.89
2018-11-04T02:20:14.341Z,1.87
2018-11-04T02:22:43.785Z,1.83
2018-11-04T02:25:16.251Z,1.85
2018-11-04T02:27:45.784Z,1.91
2018-11-04T02:30:16.588Z,1.86
2018-11-04T02:32:47.035Z,1.80
2018-11-04T02:35:16.907Z,1.80
2018-11-04T02:37:46.452Z,1.85
2018-11-04T02:40:15.916Z,1.79
2018-11-04T02:42:45.332Z,1.75
2018-11-04T02:45:14.807Z,1.77
2018-11-04T02:47:44.291Z,1.75
2018-11-04T02:50:13.804Z,1.80
2018-11-04T02:52:43.271Z,1.82
2018-11-04T02:55:12.731Z,1.85
2018-11-04T02:57:42.164Z,1.74
2018-11-04T03:00:14.253Z,1.75
2018-11-04T03:02:43.860Z,1.74
2018-11-04T03:05:13.300Z,1.82
2018-11-04T03:07:43.344Z,1.82
2018-11-04T03:10:14.139Z,1.77
2018-11-04T03:12:44.602Z,1.75
2018-11-04T03:15:14.047Z,1.79
2018-11-04T03:17:43.487Z,1.77
2018-11-04T03:20:12.920Z,1.74
2018-11-04T03:22:42.408Z,1.75
2018-11-04T03:25:12.791Z,1.74
2018-11-04T03:27:42.314Z,1.75
2018-11-04T03:30:11.722Z,1.75
2018-11-04T03:32:41.151Z,1.74
2018-11-04T03:35:10.605Z,1.77
2018-11-04T03:37:40.016Z,1.78
2018-11-04T03:40:11.623Z,1.74
2018-11-04T03:42:41.396Z,1.76
2018-11-04T03:45:11.072Z,1.80
2018-11-04T03:47:40.943Z,1.84
2018-11-04T03:50:12.485Z,1.89
2018-11-04T03:52:42.535Z,2.02
2018-11-04T03:55:12.642Z,1.88
2018-11-04T03:57:42.081Z,2.00
2018-11-04T04:00:12.920Z,2.09
2018-11-04T04:02:43.408Z,2.24
2018-11-04T04:05:12.885Z,2.41
2018-11-04T04:07:42.317Z,2.59
2018-11-04T04:10:11.780Z,2.69
2018-11-04T04:12:41.293Z,2.83
2018-11-04T04:15:11.712Z,2.98
2018-11-04T04:17:41.527Z,3.12
2018-11-04T04:20:10.962Z,3.19
2018-11-04T04:22:40.421Z,3.25
2018-11-04T04:25:10.184Z,3.27
2018-11-04T04:27:39.658Z,3.36
2018-11-04T04:30:11.038Z,3.34
2018-11-04T04:32:40.514Z,3.44
2018-11-04T04:35:10.853Z,3.47
2018-11-04T04:37:40.816Z,3.54
2018-11-04T04:40:10.653Z,3.65
2018-11-04T04:42:40.099Z,3.64
2018-11-04T04:45:09.533Z,3.76
2018-11-04T04:47:38.979Z,3.82
2018-11-04T04:50:08.496Z,3.70
2018-11-04T04:52:37.960Z,3.64
2018-11-04T04:55:08.099Z,3.68
2018-11-04T04:57:37.675Z,3.66
2018-11-04T05:00:08.057Z,3.70
2018-11-04T05:02:37.531Z,3.76
2018-11-04T05:05:07.232Z,3.81
2018-11-04T05:07:36.768Z,3.85
2018-11-04T05:10:06.662Z,3.76
2018-11-04T05:12:36.223Z,3.74
2018-11-04T05:15:09.078Z,3.75
2018-11-04T05:17:39.319Z,3.65
2018-11-04T05:20:08.775Z,3.61
2018-11-04T05:22:39.313Z,3.58
2018-11-04T05:25:08.783Z,3.56
2018-11-04T05:27:38.884Z,3.50
2018-11-04T05:30:12.572Z,3.46
2018-11-04T05:32:42.067Z,3.46
2018-11-04T05:35:11.624Z,3.48
2018-11-04T05:37:41.093Z,3.47
2018-11-04T05:40:10.718Z,3.45
2018-11-04T05:42:40.260Z,3.47
2018-11-04T05:45:10.049Z,3.48
2018-11-04T05:47:39.505Z,3.43
2018-11-04T05:50:08.951Z,3.41
2018-11-04T05:52:38.704Z,3.40
2018-11-04T05:55:08.915Z,3.36
2018-11-04T05:57:38.579Z,3.32
2018-11-04T06:00:10.388Z,3.30
2018-11-04T06:02:40.395Z,3.32
2018-11-04T06:05:11.051Z,3.36
2018-11-04T06:07:40.783Z,3.34
2018-11-04T06:10:10.230Z,3.28
2018-11-04T06:12:39.704Z,3.40
2018-11-04T06:15:09.889Z,3.37
2018-11-04T06:17:39.327Z,3.37
2018-11-04T06:20:11.343Z,3.44
2018-11-04T06:22:41.655Z,3.52
2018-11-04T06:25:11.107Z,3.50
2018-11-04T06:27:40.702Z,3.52
2018-11-04T06:30:12.453Z,3.53
2018-11-04T06:32:43.354Z,3.54
2018-11-04T06:35:13.341Z,3.57
2018-11-04T06:37:43.280Z,3.68
2018-11-04T06:40:14.020Z,3.69
2018-11-04T06:42:44.100Z,3.75
2018-11-04T06:45:14.341Z,3.76
2018-11-04T06:47:44.417Z,3.79
2018-11-04T06:50:16.201Z,3.81
2018-11-04T06:52:46.310Z,3.94
2018-11-04T06:55:16.044Z,4.04
2018-11-04T06:58:02.840Z,4.12
2018-11-04T07:00:32.999Z,4.21
2018-11-04T07:03:03.449Z,4.35
2018-11-04T07:05:33.408Z,4.58
2018-11-04T07:08:04.755Z,4.60
2018-11-04T07:10:34.849Z,4.62
2018-11-04T07:13:05.033Z,4.64
2018-11-04T07:15:35.541Z,4.80
2018-11-04T07:18:08.919Z,4.80
2018-11-04T07:20:38.731Z,4.90
2018-11-04T07:23:08.330Z,4.92
2018-11-04T07:25:40.136Z,4.98
2018-11-04T07:28:09.848Z,5.16
2018-11-04T07:30:42.059Z,5.15
2018-11-04T07:33:11.929Z,5.11
2018-11-04T07:35:41.447Z,5.15
2018-11-04T07:38:11.035Z,5.31
2018-11-04T07:40:40.787Z,5.35
2018-11-04T07:43:10.616Z,5.36
2018-11-04T07:45:40.319Z,5.44
2018-11-04T07:48:09.932Z,5.43
2018-11-04T07:50:39.899Z,5.48
2018-11-04T07:53:09.388Z,5.49
2018-11-04T07:55:38.987Z,5.57
2018-11-04T07:58:08.572Z,5.56
2018-11-04T08:00:38.655Z,5.59
2018-11-04T08:03:08.080Z,5.62
2018-11-04T08:05:37.450Z,5.71
2018-11-04T08:08:06.914Z,5.73
2018-11-04T08:10:36.393Z,5.84
2018-11-04T08:13:05.910Z,5.90
2018-11-04T08:15:35.299Z,5.88
2018-11-04T08:18:05.031Z,6.04
2018-11-04T08:20:34.491Z,6.07
2018-11-04T08:23:03.928Z,6.17
2018-11-04T08:25:33.317Z,6.15
2018-11-04T08:28:02.768Z,6.28
2018-11-04T08:30:32.173Z,6.35
2018-11-04T08:33:01.571Z,6.44
2018-11-04T08:35:30.961Z,6.64
2018-11-04T08:38:00.445Z,6.49
2018-11-04T08:40:29.900Z,6.53
2018-11-04T08:42:59.414Z,6.53
2018-11-04T08:45:28.823Z,6.61
2018-11-04T08:47:58.215Z,6.70
2018-11-04T08:50:27.863Z,6.84
2018-11-04T08:52:57.244Z,6.84
2018-11-04T08:55:26.595Z,6.86
2018-11-04T08:57:56.049Z,6.85
2018-11-04T09:00:25.478Z,6.84
2018-11-04T09:02:54.972Z,6.95
2018-11-04T09:05:24.408Z,6.95
2018-11-04T09:07:53.753Z,6.91
2018-11-04T09:10:23.300Z,6.93
2018-11-04T09:12:52.811Z,7.08
2018-11-04T09:15:22.196Z,7.02
2018-11-04T09:17:51.640Z,7.11
2018-11-04T09:20:21.157Z,7.09
2018-11-04T09:22:50.515Z,7.14
2018-11-04T09:25:19.880Z,7.18
2018-11-04T09:27:49.298Z,7.22
2018-11-04T09:30:18.739Z,7.26
2018-11-04T09:32:48.255Z,7.22
2018-11-04T09:35:17.815Z,7.19
2018-11-04T09:37:47.211Z,7.27
2018-11-04T09:40:16.587Z,7.30
2018-11-04T09:42:46.084Z,7.39
2018-11-04T09:45:15.455Z,7.29
2018-11-04T09:47:44.843Z,7.28
2018-11-04T09:50:14.406Z,7.26
2018-11-04T09:52:43.864Z,7.27
2018-11-04T09:55:13.736Z,7.35
2018-11-04T09:57:43.177Z,7.37
2018-11-04T10:00:13.375Z,7.42
2018-11-04T10:02:42.831Z,7.34
2018-11-04T10:05:12.408Z,7.43
2018-11-04T10:07:41.835Z,7.65
2018-11-04T10:10:14.005Z,7.64
2018-11-04T10:12:44.364Z,7.80
2018-11-04T10:15:14.717Z,7.73
2018-11-04T10:17:44.099Z,7.68
2018-11-04T10:20:13.842Z,7.74
2018-11-04T10:22:43.284Z,7.97
2018-11-04T10:25:16.039Z,8.07
2018-11-04T10:27:45.532Z,7.95
2018-11-04T10:30:16.221Z,7.93
2018-11-04T10:32:46.150Z,8.02
2018-11-04T10:35:15.573Z,8.08
2018-11-04T10:37:45.036Z,8.09
2018-11-04T10:40:14.633Z,8.10
2018-11-04T10:42:44.155Z,8.34
2018-11-04T10:45:13.746Z,8.22
2018-11-04T10:47:43.212Z,8.32
2018-11-04T10:50:13.577Z,8.40
2018-11-04T10:52:43.192Z,8.55
2018-11-04T10:55:12.743Z,8.55
2018-11-04T10:57:42.203Z,8.64
2018-11-04T11:00:17.512Z,8.64
2018-11-04T11:02:47.078Z,8.53
2018-11-04T11:05:16.842Z,8.62
2018-11-04T11:07:46.465Z,8.67
2018-11-04T11:10:16.044Z,8.66
2018-11-04T11:12:45.527Z,8.71
2018-11-04T11:15:15.285Z,8.72
2018-11-04T11:17:44.839Z,8.83
2018-11-04T11:20:14.363Z,8.73
2018-11-04T11:22:44.071Z,8.80
2018-11-04T11:25:13.502Z,8.92
2018-11-04T11:27:42.969Z,8.93
2018-11-04T11:30:12.571Z,8.80
2018-11-04T11:32:41.852Z,8.98
2018-11-04T11:35:11.361Z,8.97
2018-11-04T11:37:40.787Z,9.20
2018-11-04T11:40:10.593Z,9.32
2018-11-04T11:42:40.240Z,9.35
2018-11-04T11:45:10.144Z,9.41
2018-11-04T11:47:39.583Z,9.45
2018-11-04T11:50:09.274Z,9.49
2018-11-04T11:52:38.728Z,9.32
2018-11-04T11:55:08.382Z,9.39
2018-11-04T11:57:37.879Z,9.60
2018-11-04T12:00:09.434Z,9.59
2018-11-04T12:02:39.861Z,9.63
2018-11-04T12:05:09.507Z,9.74
2018-11-04T12:07:39.392Z,9.81
2018-11-04T12:10:13.163Z,9.83
2018-11-04T12:12:42.705Z,9.96
2018-11-04T12:15:13.094Z,9.77
2018-11-04T12:17:42.841Z,9.83
2018-11-04T12:20:13.265Z,9.83
2018-11-04T12:22:42.856Z,9.86
2018-11-04T12:25:13.336Z,9.99
2018-11-04T12:27:43.081Z,10.17
2018-11-04T12:30:15.073Z,10.36
2018-11-04T12:32:44.609Z,10.58
2018-11-04T12:35:14.672Z,10.59
2018-11-04T12:37:44.075Z,10.34
2018-11-04T12:40:14.104Z,10.30
2018-11-04T12:42:43.579Z,10.47
2018-11-04T12:45:13.623Z,10.48
2018-11-04T12:47:43.185Z,10.37
2018-11-04T12:50:13.456Z,10.42
2018-11-04T12:52:42.883Z,10.43
2018-11-04T12:55:12.268Z,10.60
2018-11-04T12:57:41.684Z,10.42
2018-11-04T13:00:14.474Z,10.33
2018-11-04T13:02:44.673Z,10.23
2018-11-04T13:05:14.115Z,10.29
2018-11-04T13:07:43.536Z,10.20
2018-11-04T13:10:14.241Z,10.10
2018-11-04T13:12:43.637Z,10.06
2018-11-04T13:15:14.287Z,9.97
2018-11-04T13:17:44.149Z,9.96
2018-11-04T13:20:13.675Z,10.00
2018-11-04T13:22:43.204Z,9.90
2018-11-04T13:25:12.691Z,9.86
2018-11-04T13:27:42.518Z,9.78
2018-11-04T13:30:13.268Z,9.90
2018-11-04T13:32:42.832Z,9.81
2018-11-04T13:35:12.283Z,9.88
2018-11-04T13:37:41.726Z,9.79
2018-11-04T13:40:12.481Z,9.74
2018-11-04T13:42:42.662Z,9.69
2018-11-04T13:45:12.464Z,9.67
2018-11-04T13:47:41.855Z,9.70
2018-11-04T13:50:13.046Z,9.67
2018-11-04T13:52:43.024Z,9.64
2018-11-04T13:55:12.444Z,9.66
2018-11-04T13:57:41.903Z,9.64
2018-11-04T14:00:14.564Z,9.63
2018-11-04T14:02:44.961Z,9.69
2018-11-04T14:05:14.439Z,9.74
2018-11-04T14:07:43.783Z,9.64
2018-11-04T14:10:14.952Z,9.64
2018-11-04T14:12:44.873Z,9.62
2018-11-04T14:15:15.049Z,9.66
2018-11-04T14:17:44.587Z,9.69
2018-11-04T14:20:14.149Z,9.66
2018-11-04T14:22:43.590Z,9.59
2018-11-04T14:25:13.377Z,9.65
2018-11-04T14:27:42.924Z,9.67
2018-11-04T14:30:14.300Z,9.71
2018-11-04T14:32:44.189Z,9.61
2018-11-04T14:35:13.768Z,9.58
2018-11-04T14:37:43.684Z,9.56
2018-11-04T14:40:15.252Z,9.68
2018-11-04T14:42:45.579Z,9.54
2018-11-04T14:45:15.076Z,9.62
2018-11-04T14:47:44.569Z,9.51
2018-11-04T14:50:18.855Z,9.52
2018-11-04T14:52:48.990Z,9.55
2018-11-04T14:55:18.418Z,9.56
2018-11-04T14:57:47.852Z,9.56
2018-11-04T15:00:17.620Z,9.50
2018-11-04T15:02:47.330Z,9.56
2018-11-04T15:05:16.739Z,9.51
2018-11-04T15:07:46.248Z,9.50
2018-11-04T15:10:16.250Z,9.49
2018-11-04T15:12:45.744Z,9.47
2018-11-04T15:15:16.894Z,9.52
2018-11-04T15:17:56.603Z,9.51
2018-11-04T15:20:26.208Z,9.40
2018-11-04T15:22:55.657Z,9.50
2018-11-04T15:25:25.103Z,9.55
2018-11-04T15:27:54.686Z,9.37
2018-11-04T15:30:24.269Z,9.29
2018-11-04T15:32:53.739Z,9.38
2018-11-04T15:35:23.188Z,9.43
2018-11-04T15:37:52.683Z,9.36
2018-11-04T15:40:22.140Z,9.47
2018-11-04T15:42:51.592Z,9.50
2018-11-04T15:45:21.075Z,9.42
2018-11-04T15:47:50.929Z,9.34
2018-11-04T15:50:21.491Z,9.35
2018-11-04T15:52:50.995Z,9.31
2018-11-04T15:55:20.531Z,9.28
2018-11-04T15:57:49.995Z,9.40
2018-11-04T16:00:20.274Z,9.38
2018-11-04T16:02:49.773Z,9.28
2018-11-04T16:05:19.302Z,9.24
2018-11-04T16:07:49.563Z,9.22
2018-11-04T16:10:19.352Z,9.16
2018-11-04T16:12:49.062Z,9.23
2018-11-04T16:15:18.710Z,9.13
2018-11-04T16:17:48.521Z,9.19
2018-11-04T16:20:21.613Z,9.17
2018-11-04T16:22:51.567Z,9.12
2018-11-04T16:25:21.156Z,9.17
2018-11-04T16:27:50.933Z,9.07
2018-11-04T16:30:20.953Z,9.07
2018-11-04T16:32:51.116Z,9.01
2018-11-04T16:35:20.587Z,9.05
2018-11-04T16:37:50.670Z,8.99
2018-11-04T16:40:20.557Z,9.02
2018-11-04T16:42:50.362Z,9.05
2018-11-04T16:45:20.302Z,9.04
2018-11-04T16:47:50.352Z,8.94
2018-11-04T16:53:52.537Z,8.99
2018-11-04T16:56:21.972Z,8.99
2018-11-04T16:58:51.475Z,9.14
2018-11-04T17:01:44.564Z,9.08
2018-11-04T17:07:20.233Z,9.00
2018-11-04T17:12:33.056Z,9.09
2018-11-04T17:15:03.352Z,9.04
2018-11-04T17:17:33.498Z,9.04
2018-11-04T17:20:03.551Z,9.01
2018-11-04T17:22:36.384Z,9.08
2018-11-04T17:25:10.688Z,9.03
2018-11-04T17:27:41.720Z,9.08
2018-11-04T17:30:16.583Z,9.07
2018-11-04T17:32:48.019Z,9.07
2018-11-04T17:38:06.071Z,9.05
2018-11-04T17:43:33.253Z,9.30
2018-11-04T17:46:04.627Z,9.10
2018-11-04T17:48:34.089Z,9.07
2018-11-04T17:51:03.581Z,9.17
2018-11-04T17:53:33.051Z,9.07
2018-11-04T17:56:02.466Z,9.07
2018-11-04T17:58:31.902Z,9.07
2018-11-04T18:01:01.332Z,9.01
2018-11-04T18:03:30.947Z,8.99
2018-11-04T18:06:00.622Z,9.01
2018-11-04T18:08:30.071Z,9.01
2018-11-04T18:10:59.498Z,9.17
2018-11-04T18:13:28.951Z,9.03
2018-11-04T18:15:58.398Z,9.01
2018-11-04T18:18:27.858Z,9.02
2018-11-04T18:20:57.316Z,9.10
2018-11-04T18:23:26.900Z,9.06
2018-11-04T18:25:56.315Z,9.05
2018-11-04T18:28:25.739Z,8.99
2018-11-04T18:30:55.239Z,9.00
2018-11-04T18:33:24.656Z,8.97
2018-11-04T18:35:54.057Z,9.05
2018-11-04T18:38:23.512Z,9.02
2018-11-04T18:40:52.969Z,9.00
2018-11-04T18:43:22.421Z,9.03
2018-11-04T18:45:51.881Z,9.02
2018-11-04T18:48:21.307Z,9.03
2018-11-04T18:50:50.773Z,9.10
2018-11-04T18:53:20.252Z,9.26
2018-11-04T18:55:49.680Z,9.17
2018-11-04T18:58:19.074Z,9.12
2018-11-04T19:00:48.549Z,9.06
2018-11-04T19:03:17.958Z,9.02
2018-11-04T19:05:47.410Z,9.06
2018-11-04T19:08:17.031Z,9.09
2018-11-04T19:10:46.549Z,9.11
2018-11-04T19:13:16.114Z,9.10
2018-11-04T19:15:45.588Z,9.18
2018-11-04T19:18:15.069Z,9.24
2018-11-04T19:20:44.655Z,9.19
2018-11-04T19:23:14.184Z,9.11
2018-11-04T19:25:43.719Z,9.14
2018-11-04T19:28:13.212Z,9.22
2018-11-04T19:30:42.747Z,9.20
2018-11-04T19:33:12.262Z,9.20
2018-11-04T19:35:41.700Z,9.12
2018-11-04T19:38:11.249Z,9.08
2018-11-04T19:40:40.693Z,9.08
2018-11-04T19:43:10.306Z,9.01
2018-11-04T19:45:39.796Z,9.20
2018-11-04T19:48:09.299Z,9.11
2018-11-04T19:50:38.759Z,9.18
2018-11-04T19:53:07.873Z,9.30
2018-11-04T19:55:37.411Z,9.37
2018-11-04T19:58:07.003Z,9.17
2018-11-04T20:00:36.731Z,9.20
2018-11-04T20:03:06.571Z,9.30
2018-11-04T20:05:37.270Z,9.17
2018-11-04T20:08:07.231Z,9.09
2018-11-04T20:10:36.697Z,9.18
2018-11-04T20:13:12.271Z,9.14
2018-11-04T20:15:41.826Z,9.11
2018-11-04T20:18:17.091Z,9.13
2018-11-04T20:20:46.585Z,9.20
2018-11-04T20:23:16.673Z,9.23
2018-11-04T20:25:51.460Z,9.12
2018-11-04T20:28:21.011Z,9.18
2018-11-04T20:30:50.503Z,9.11
2018-11-04T20:33:19.957Z,9.11
2018-11-04T20:35:50.449Z,9.07
2018-11-04T20:38:23.062Z,9.10
2018-11-04T20:40:58.843Z,9.13
2018-11-04T20:43:28.275Z,9.13
2018-11-04T20:45:57.688Z,9.21
2018-11-04T20:49:35.459Z,9.18
2018-11-04T20:52:04.945Z,9.26
2018-11-04T20:54:34.296Z,9.24
2018-11-04T20:58:11.947Z,9.30
2018-11-04T21:00:42.177Z,9.20
2018-11-04T21:03:11.616Z,9.14
2018-11-04T21:05:41.019Z,9.23
2018-11-04T21:08:10.462Z,9.20
2018-11-04T21:10:40.013Z,9.34
2018-11-04T21:13:09.506Z,9.38
2018-11-04T21:15:39.009Z,9.22
2018-11-04T21:18:08.561Z,9.14
2018-11-04T21:20:37.974Z,9.11
2018-11-04T21:23:07.401Z,9.31
2018-11-04T21:25:37.098Z,9.26
2018-11-04T21:28:06.911Z,9.31
2018-11-04T21:30:36.513Z,9.27
2018-11-04T21:33:06.340Z,9.23
2018-11-04T21:35:35.943Z,9.21
2018-11-04T21:38:05.553Z,9.23
2018-11-04T21:40:35.091Z,9.32
2018-11-04T21:43:04.691Z,9.27
2018-11-04T21:45:34.722Z,9.31
2018-11-04T21:48:04.274Z,9.22
2018-11-04T21:50:33.774Z,9.14
2018-11-04T21:53:03.246Z,9.29
2018-11-04T21:55:32.857Z,9.17
2018-11-04T21:58:02.187Z,9.31
2018-11-04T22:00:31.641Z,9.35
2018-11-04T22:03:01.092Z,9.23
2018-11-04T22:05:31.575Z,9.24
2018-11-04T22:08:01.025Z,9.28
2018-11-04T22:10:30.580Z,9.26
2018-11-04T22:13:00.149Z,9.25
2018-11-04T22:15:29.609Z,9.37
2018-11-04T22:17:59.014Z,9.30
2018-11-04T22:20:28.590Z,9.23
2018-11-04T22:22:58.058Z,9.23
2018-11-04T22:25:27.459Z,9.18
2018-11-04T22:27:56.947Z,9.32
2018-11-04T22:30:26.438Z,9.19
2018-11-04T22:32:55.862Z,9.30
2018-11-04T22:35:25.608Z,9.36
2018-11-04T22:37:55.080Z,9.37
2018-11-04T22:40:24.846Z,9.33
2018-11-04T22:42:54.302Z,9.22
2018-11-04T22:45:23.665Z,9.18
2018-11-04T22:47:53.410Z,9.13
2018-11-04T22:50:24.198Z,9.23
2018-11-04T22:52:53.622Z,9.22
2018-11-04T22:55:23.051Z,9.19
2018-11-04T22:57:52.655Z,9.19
2018-11-04T23:00:27.292Z,9.17
2018-11-04T23:02:56.811Z,9.26
2018-11-04T23:05:27.176Z,9.30
2018-11-04T23:07:56.800Z,9.19
2018-11-04T23:10:26.304Z,9.27
2018-11-04T23:12:55.767Z,9.24
2018-11-04T23:15:25.418Z,9.24
2018-11-04T23:17:54.944Z,9.29
2018-11-04T23:20:24.451Z,9.25
2018-11-04T23:22:54.063Z,9.31
2018-11-04T23:25:23.574Z,9.29
2018-11-04T23:27:53.074Z,9.45
2018-11-04T23:30:22.540Z,9.40
2018-11-04T23:32:52.026Z,9.38
2018-11-04T23:35:21.898Z,9.28
2018-11-04T23:37:51.491Z,9.23
2018-11-04T23:40:21.113Z,9.33
2018-11-04T23:42:50.643Z,9.20
2018-11-04T23:45:20.288Z,9.19
2018-11-04T23:47:49.782Z,9.17
2018-11-04T23:50:19.477Z,9.21
2018-11-04T23:52:49.099Z,9.19
2018-11-04T23:55:18.633Z,9.21
2018-11-04T23:57:48.113Z,9.46
